Time;durP1;ratioP1;P1;durP2;ratioP2;P2;SDS_P1;SDS_P2;PMS_P1;PMS_P2;Temp;Humidity;BMP_temperature;BMP_pressure;BME280_temperature;BME280_humidity;BME280_pressure;Samples;Min_cycle;Max_cycle;Signal;HPM_P1;HPM_P2
2023/03/22 00:01:11;;;;;;;73.23;12.70;;;11.00;99.90;;;;;;5047525;28;20164;-85
2023/03/22 00:03:38;;;;;;;75.00;13.63;;;11.10;99.90;;;;;;5065223;28;21158;-85
2023/03/22 00:06:04;;;;;;;75.78;14.50;;;11.00;99.90;;;;;;5046595;28;20164;-85
2023/03/22 00:08:29;;;;;;;75.40;15.05;;;11.00;99.90;;;;;;5065910;28;20210;-85
2023/03/22 00:10:55;;;;;;;74.50;17.93;;;11.00;99.90;;;;;;5064821;28;20240;-85
2023/03/22 00:13:21;;;;;;;74.27;16.60;;;11.00;99.90;;;;;;5065401;28;20195;-85
2023/03/22 00:15:47;;;;;;;77.90;15.30;;;11.00;99.90;;;;;;5047421;28;20165;-85
2023/03/22 00:18:15;;;;;;;77.18;16.25;;;11.00;99.90;;;;;;5064447;28;20592;-85
2023/03/22 00:20:52;;;;;;;73.63;16.80;;;11.10;99.90;;;;;;5063647;28;20168;-85
2023/03/22 00:23:18;;;;;;;74.75;12.98;;;11.10;99.90;;;;;;5046061;28;20200;-85
2023/03/22 00:25:46;;;;;;;76.82;13.13;;;11.10;99.90;;;;;;5063883;28;20191;-85
2023/03/22 00:28:12;;;;;;;76.22;15.18;;;11.10;99.90;;;;;;5063952;28;20161;-85
2023/03/22 00:30:38;;;;;;;75.22;17.23;;;11.10;99.90;;;;;;5064124;28;20702;-85
2023/03/22 00:33:04;;;;;;;78.70;13.47;;;11.10;99.90;;;;;;5045313;28;20197;-85
2023/03/22 00:35:30;;;;;;;78.22;15.77;;;11.10;99.90;;;;;;5045537;28;20184;-85
2023/03/22 00:37:56;;;;;;;78.20;12.80;;;11.10;99.90;;;;;;5045862;28;20169;-85
2023/03/22 00:40:22;;;;;;;73.47;13.80;;;11.20;99.90;;;;;;5063706;28;20403;-85
2023/03/22 00:42:48;;;;;;;72.30;13.47;;;11.20;99.90;;;;;;5063817;28;20200;-85
2023/03/22 00:45:13;;;;;;;73.00;12.50;;;11.20;99.90;;;;;;5045591;28;20418;-85
2023/03/22 00:47:39;;;;;;;75.37;14.20;;;11.20;99.90;;;;;;5045594;28;20462;-85
2023/03/22 00:50:07;;;;;;;71.57;12.03;;;11.20;99.90;;;;;;5045137;28;20453;-85
2023/03/22 00:52:32;;;;;;;74.07;13.85;;;11.10;99.90;;;;;;5064400;28;20189;-85
2023/03/22 00:54:58;;;;;;;74.70;13.17;;;11.10;99.90;;;;;;5046501;28;20165;-85
2023/03/22 00:57:24;;;;;;;75.50;13.63;;;11.10;99.90;;;;;;5062263;28;20199;-85
2023/03/22 00:59:52;;;;;;;73.40;12.17;;;11.00;99.90;;;;;;5045634;28;20169;-85
2023/03/22 01:02:18;;;;;;;74.07;13.68;;;11.10;99.90;;;;;;5045716;28;20258;-85
2023/03/22 01:04:48;;;;;;;73.22;16.13;;;11.00;99.90;;;;;;5047262;28;20168;-85
2023/03/22 01:07:16;;;;;;;75.47;13.55;;;10.90;99.90;;;;;;5045297;28;20168;-85
2023/03/22 01:09:43;;;;;;;72.05;12.48;;;10.90;99.90;;;;;;5063636;28;20180;-85
2023/03/22 01:12:10;;;;;;;76.90;13.23;;;11.00;99.90;;;;;;5045700;28;20168;-85
2023/03/22 01:14:36;;;;;;;72.18;13.13;;;10.90;99.90;;;;;;5046252;28;20167;-85
2023/03/22 01:17:01;;;;;;;76.10;14.50;;;11.00;99.90;;;;;;5044926;28;20259;-85
2023/03/22 01:19:27;;;;;;;76.23;14.70;;;11.00;99.90;;;;;;5046043;28;20465;-85
2023/03/22 01:21:53;;;;;;;77.53;15.90;;;11.00;99.90;;;;;;5063560;28;20744;-85
2023/03/22 01:24:19;;;;;;;74.32;15.88;;;11.00;99.90;;;;;;5044945;28;20171;-85
2023/03/22 01:26:45;;;;;;;78.70;16.97;;;11.00;99.90;;;;;;5063295;28;20532;-85
2023/03/22 01:29:11;;;;;;;78.60;15.20;;;11.00;99.90;;;;;;5045653;28;20443;-85
2023/03/22 01:31:36;;;;;;;75.13;15.30;;;11.00;99.90;;;;;;5063218;28;20222;-85
2023/03/22 01:34:02;;;;;;;74.00;13.97;;;11.00;99.90;;;;;;5064107;28;20415;-85
2023/03/22 01:36:28;;;;;;;76.28;14.18;;;11.10;99.90;;;;;;5045989;28;20161;-85
2023/03/22 01:38:54;;;;;;;75.03;14.70;;;11.10;99.90;;;;;;5063150;28;20161;-85
2023/03/22 01:41:20;;;;;;;74.80;13.07;;;11.00;99.90;;;;;;5063321;28;20169;-85
2023/03/22 01:44:17;;;;;;;76.70;13.37;;;11.00;99.90;;;;;;5045123;28;20199;-85
2023/03/22 01:46:45;;;;;;;74.65;14.88;;;11.00;99.90;;;;;;5063289;28;20662;-85
2023/03/22 01:49:33;;;;;;;74.70;16.33;;;10.90;99.90;;;;;;5062687;28;20192;-85
2023/03/22 01:52:04;;;;;;;81.38;16.10;;;10.90;99.90;;;;;;5062476;28;20218;-85
2023/03/22 01:54:33;;;;;;;76.43;13.70;;;10.90;99.90;;;;;;5062700;28;20144;-85
2023/03/22 01:57:00;;;;;;;76.03;13.75;;;10.90;99.90;;;;;;5062800;28;20169;-85
2023/03/22 01:59:26;;;;;;;72.95;15.38;;;10.90;99.90;;;;;;5044258;28;20190;-85
2023/03/22 02:01:52;;;;;;;71.60;14.48;;;10.90;99.90;;;;;;5062285;28;20651;-85
2023/03/22 02:04:22;;;;;;;72.22;14.82;;;10.80;99.90;;;;;;5061431;28;20172;-85
2023/03/22 02:06:52;;;;;;;74.88;15.13;;;10.80;99.90;;;;;;5045379;28;20176;-85
2023/03/22 02:09:22;;;;;;;73.88;13.65;;;10.80;99.90;;;;;;5061489;28;20183;-85
2023/03/22 02:12:13;;;;;;;75.07;14.43;;;10.80;99.90;;;;;;5044073;28;20172;-85
2023/03/22 02:14:39;;;;;;;76.75;16.40;;;10.90;99.90;;;;;;5062429;28;20164;-85
2023/03/22 02:17:18;;;;;;;73.87;16.27;;;10.80;99.90;;;;;;5062167;28;20164;-86
2023/03/22 02:20:09;;;;;;;74.00;13.00;;;10.80;99.90;;;;;;5062570;28;20165;-85
2023/03/22 02:22:43;;;;;;;73.38;14.05;;;10.80;99.90;;;;;;5044193;28;20206;-85
2023/03/22 02:25:26;;;;;;;74.57;13.25;;;10.80;99.90;;;;;;5062601;28;20148;-85
2023/03/22 02:28:20;;;;;;;75.45;13.65;;;10.80;99.90;;;;;;5061805;28;20512;-85
2023/03/22 02:31:22;;;;;;;74.32;13.32;;;10.90;99.90;;;;;;5061981;28;20199;-85
2023/03/22 02:33:53;;;;;;;72.30;12.60;;;10.80;99.90;;;;;;5062339;28;20724;-85
2023/03/22 02:36:25;;;;;;;74.78;14.85;;;10.70;99.90;;;;;;5061933;28;20635;-85
2023/03/22 02:39:28;;;;;;;72.05;13.05;;;10.70;99.90;;;;;;5042670;28;20215;-85
2023/03/22 02:42:06;;;;;;;70.82;11.60;;;10.70;99.90;;;;;;5043214;28;20168;-84
2023/03/22 02:45:02;;;;;;;75.57;13.27;;;10.70;99.90;;;;;;5043806;28;20531;-85
2023/03/22 02:47:38;;;;;;;73.47;13.27;;;10.70;99.90;;;;;;5060887;28;20188;-85
2023/03/22 02:50:22;;;;;;;73.65;12.10;;;10.70;99.90;;;;;;5043695;28;20202;-85
2023/03/22 02:52:54;;;;;;;76.30;13.43;;;10.70;99.90;;;;;;5042809;28;20206;-84
2023/03/22 02:55:31;;;;;;;80.75;15.27;;;10.70;99.90;;;;;;5060623;28;20153;-85
2023/03/22 02:58:31;;;;;;;71.65;12.95;;;10.70;99.90;;;;;;5042960;28;20520;-85
2023/03/22 03:01:01;;;;;;;73.82;12.20;;;10.60;99.90;;;;;;5058531;28;20648;-85
2023/03/22 03:03:29;;;;;;;73.85;12.85;;;10.70;99.90;;;;;;5042939;28;20203;-84
2023/03/22 03:06:03;;;;;;;74.95;15.40;;;10.60;99.90;;;;;;5061374;28;20159;-85
2023/03/22 03:08:30;;;;;;;74.13;12.90;;;10.60;99.90;;;;;;5043033;28;20243;-85
2023/03/22 03:10:55;;;;;;;72.32;12.93;;;10.60;99.90;;;;;;5043048;28;20192;-85
2023/03/22 03:13:21;;;;;;;73.20;12.37;;;10.60;99.90;;;;;;5062015;28;20650;-85
2023/03/22 03:15:53;;;;;;;74.70;14.00;;;10.60;99.90;;;;;;5060358;28;20180;-85
2023/03/22 03:18:37;;;;;;;73.75;14.27;;;10.60;99.90;;;;;;5043733;28;20664;-85
2023/03/22 03:21:16;;;;;;;72.35;12.07;;;10.60;99.90;;;;;;5042102;28;20608;-85
2023/03/22 03:24:01;;;;;;;73.65;13.70;;;10.60;99.90;;;;;;5060890;28;20187;-85
2023/03/22 03:26:34;;;;;;;73.07;11.57;;;10.60;99.90;;;;;;5042646;28;20163;-85
2023/03/22 03:29:21;;;;;;;77.43;12.15;;;10.60;99.90;;;;;;5060115;28;20186;-85
2023/03/22 03:32:15;;;;;;;72.10;10.38;;;10.60;99.90;;;;;;5042344;28;20176;-85
2023/03/22 03:34:50;;;;;;;71.85;11.75;;;10.50;99.90;;;;;;5060174;28;20282;-85
2023/03/22 03:37:25;;;;;;;70.85;12.50;;;10.60;99.90;;;;;;5060170;28;20148;-85
2023/03/22 03:40:08;;;;;;;73.60;11.23;;;10.60;99.90;;;;;;5060119;28;20684;-85
2023/03/22 03:42:38;;;;;;;71.78;11.20;;;10.50;99.90;;;;;;5060293;28;20188;-85
2023/03/22 03:45:06;;;;;;;74.10;9.95;;;10.50;99.90;;;;;;5042199;28;20591;-85
2023/03/22 03:47:34;;;;;;;70.28;9.85;;;10.50;99.90;;;;;;5042121;28;20623;-84
2023/03/22 03:50:01;;;;;;;74.30;14.30;;;10.50;99.90;;;;;;5060807;28;20211;-85
2023/03/22 03:52:28;;;;;;;73.50;12.23;;;10.50;99.90;;;;;;5042252;28;20238;-85
2023/03/22 03:54:54;;;;;;;73.85;11.30;;;10.50;99.90;;;;;;5060061;28;20218;-85
2023/03/22 03:57:19;;;;;;;70.20;11.90;;;10.50;99.90;;;;;;5060943;28;20169;-85
2023/03/22 03:59:45;;;;;;;70.70;9.57;;;10.40;99.90;;;;;;5043221;28;20511;-85
2023/03/22 04:02:11;;;;;;;72.77;11.47;;;10.50;99.90;;;;;;5060713;28;20438;-85
2023/03/22 04:04:37;;;;;;;72.10;11.30;;;10.50;99.90;;;;;;5042097;28;20183;-85
2023/03/22 04:07:04;;;;;;;71.70;11.27;;;10.50;99.90;;;;;;5043405;28;20204;-85
2023/03/22 04:09:33;;;;;;;73.75;10.88;;;10.50;99.90;;;;;;5059865;28;20454;-85
2023/03/22 04:11:59;;;;;;;73.65;11.85;;;10.50;99.90;;;;;;5061175;28;20167;-85
2023/03/22 04:14:25;;;;;;;74.32;13.10;;;10.40;99.90;;;;;;5060705;28;20608;-85
2023/03/22 04:16:51;;;;;;;71.68;10.02;;;10.40;99.90;;;;;;5041470;28;20172;-85
2023/03/22 04:19:17;;;;;;;72.10;11.37;;;10.40;99.90;;;;;;5061592;28;20175;-85
2023/03/22 04:21:44;;;;;;;70.72;11.30;;;10.30;99.90;;;;;;5060751;28;20506;-85
2023/03/22 04:24:10;;;;;;;74.55;12.20;;;10.30;99.90;;;;;;5043381;28;20195;-85
2023/03/22 04:26:36;;;;;;;71.13;10.35;;;10.20;99.90;;;;;;5043093;28;20175;-85
2023/03/22 04:29:03;;;;;;;73.43;12.90;;;10.20;99.90;;;;;;5060274;28;20185;-85
2023/03/22 04:31:30;;;;;;;74.18;13.55;;;10.10;99.90;;;;;;5042895;28;20528;-85
2023/03/22 04:33:56;;;;;;;72.78;12.75;;;10.00;99.90;;;;;;5046018;28;20672;-85
2023/03/22 04:36:23;;;;;;;75.80;14.30;;;10.00;99.90;;;;;;5064436;28;20175;-85
2023/03/22 04:38:50;;;;;;;75.40;14.50;;;9.90;99.90;;;;;;5063861;28;20161;-85
2023/03/22 04:41:16;;;;;;;73.65;13.25;;;9.90;99.90;;;;;;5045742;28;20180;-85
2023/03/22 04:43:45;;;;;;;76.88;15.02;;;9.80;99.90;;;;;;5045684;28;20283;-85
2023/03/22 04:46:12;;;;;;;73.55;15.63;;;9.80;99.90;;;;;;5063756;28;20153;-85
2023/03/22 04:48:40;;;;;;;73.03;14.20;;;9.70;99.90;;;;;;5063666;28;20532;-85
2023/03/22 04:51:07;;;;;;;74.35;14.00;;;9.70;99.90;;;;;;5063549;28;20171;-85
2023/03/22 04:53:37;;;;;;;76.90;17.45;;;9.70;99.90;;;;;;5063588;28;20551;-85
2023/03/22 04:56:13;;;;;;;82.95;14.52;;;9.60;99.90;;;;;;5063209;28;20145;-85
2023/03/22 04:58:41;;;;;;;78.28;14.95;;;9.60;99.90;;;;;;5063322;28;20163;-85
2023/03/22 05:01:08;;;;;;;76.57;14.52;;;9.50;99.90;;;;;;5063340;28;20218;-85
2023/03/22 05:03:35;;;;;;;78.00;16.02;;;9.60;99.90;;;;;;5045478;28;20269;-85
2023/03/22 05:06:03;;;;;;;79.15;14.35;;;9.50;99.90;;;;;;5045669;28;20648;-85
2023/03/22 05:08:29;;;;;;;82.20;18.58;;;9.50;99.90;;;;;;5062832;28;20539;-85
2023/03/22 05:10:57;;;;;;;77.70;16.25;;;9.50;99.90;;;;;;5063262;28;20185;-85
2023/03/22 05:13:26;;;;;;;76.53;18.55;;;9.40;99.90;;;;;;5062847;28;20184;-85
2023/03/22 05:15:53;;;;;;;81.15;17.63;;;9.40;99.90;;;;;;5062800;28;20164;-85
2023/03/22 05:18:20;;;;;;;80.30;16.50;;;9.40;99.90;;;;;;5063227;28;20164;-85
2023/03/22 05:20:47;;;;;;;80.18;17.63;;;9.40;99.90;;;;;;5063557;28;20165;-85
2023/03/22 05:23:18;;;;;;;79.07;20.20;;;9.30;99.90;;;;;;5044814;28;20691;-85
2023/03/22 05:25:45;;;;;;;79.28;19.50;;;9.30;99.90;;;;;;5044440;28;20169;-85
2023/03/22 05:28:13;;;;;;;79.28;16.85;;;9.20;99.90;;;;;;5045334;28;20171;-85
2023/03/22 05:30:46;;;;;;;80.40;17.30;;;9.30;99.90;;;;;;5062463;28;20224;-85
2023/03/22 05:33:11;;;;;;;76.75;15.70;;;9.30;99.90;;;;;;5045428;28;20188;-85
2023/03/22 05:35:39;;;;;;;78.60;15.00;;;9.30;99.90;;;;;;5044047;28;20172;-86
2023/03/22 05:38:05;;;;;;;77.50;16.70;;;9.30;99.90;;;;;;5062952;28;20160;-85
2023/03/22 05:40:31;;;;;;;78.68;19.48;;;9.30;99.90;;;;;;5045066;28;20192;-85
2023/03/22 05:42:57;;;;;;;77.90;17.63;;;9.30;99.90;;;;;;5045077;28;20196;-85
2023/03/22 05:45:23;;;;;;;79.60;20.93;;;9.40;99.90;;;;;;5045116;28;20517;-85
2023/03/22 05:47:50;;;;;;;79.30;19.55;;;9.40;99.90;;;;;;5102803;23;20294;-85
2023/03/22 05:50:19;;;;;;;78.75;19.98;;;9.50;99.90;;;;;;5043390;28;20733;-85
2023/03/22 05:52:45;;;;;;;81.38;20.05;;;9.60;99.90;;;;;;5036009;28;20181;-85
2023/03/22 05:55:12;;;;;;;79.43;22.40;;;9.70;99.90;;;;;;5043251;28;20165;-84
2023/03/22 05:57:39;;;;;;;79.35;19.58;;;9.70;99.90;;;;;;5043792;28;20165;-85
2023/03/22 06:00:12;;;;;;;79.82;23.60;;;9.70;99.90;;;;;;5043275;28;20200;-84
2023/03/22 06:02:38;;;;;;;77.88;20.27;;;9.70;99.90;;;;;;5041208;28;20186;-84
2023/03/22 06:05:04;;;;;;;83.80;20.73;;;9.70;99.90;;;;;;5042619;28;20158;-84
2023/03/22 06:07:30;;;;;;;79.97;23.40;;;9.80;99.90;;;;;;5042671;28;20166;-84
2023/03/22 06:09:56;;;;;;;83.60;24.03;;;9.80;99.90;;;;;;5042299;28;20188;-84
2023/03/22 06:12:23;;;;;;;81.80;22.87;;;9.80;99.90;;;;;;5038093;28;20939;-84
2023/03/22 06:14:49;;;;;;;80.63;24.35;;;9.80;99.90;;;;;;5042990;28;20158;-84
2023/03/22 06:17:15;;;;;;;82.47;22.95;;;9.80;99.90;;;;;;5045065;28;20168;-84
2023/03/22 06:19:41;;;;;;;80.90;20.97;;;9.90;99.90;;;;;;5041842;28;20168;-84
2023/03/22 06:22:06;;;;;;;77.30;18.53;;;10.00;99.90;;;;;;5042949;28;20400;-85
2023/03/22 06:24:32;;;;;;;79.47;20.20;;;10.10;99.90;;;;;;5040027;28;20181;-85
2023/03/22 06:26:58;;;;;;;75.60;18.77;;;10.00;99.90;;;;;;5034922;28;20192;-85
2023/03/22 06:29:24;;;;;;;77.87;19.47;;;10.00;99.90;;;;;;5042690;28;20522;-85
2023/03/22 06:31:49;;;;;;;78.90;20.37;;;10.10;99.90;;;;;;5040075;28;20514;-84
2023/03/22 06:34:15;;;;;;;76.20;16.90;;;10.20;99.90;;;;;;5042451;28;20189;-85
2023/03/22 06:36:41;;;;;;;76.00;16.33;;;10.20;99.90;;;;;;5042126;28;20177;-84
2023/03/22 06:39:07;;;;;;;82.67;15.00;;;10.20;99.90;;;;;;5042693;28;20161;-84
2023/03/22 06:41:33;;;;;;;78.30;14.38;;;10.30;99.90;;;;;;5041137;28;20466;-84
2023/03/22 06:43:59;;;;;;;78.70;15.17;;;10.30;99.90;;;;;;5035709;28;20669;-84
2023/03/22 06:46:25;;;;;;;81.03;16.13;;;10.40;99.90;;;;;;5043827;28;20165;-84
2023/03/22 06:48:53;;;;;;;78.17;15.33;;;10.40;99.90;;;;;;5042430;28;20184;-84
2023/03/22 06:51:19;;;;;;;78.65;15.57;;;10.50;99.90;;;;;;5042295;28;20837;-84
2023/03/22 06:53:45;;;;;;;79.77;13.73;;;10.60;99.90;;;;;;5033311;28;20216;-84
2023/03/22 06:56:10;;;;;;;80.00;15.73;;;10.60;99.90;;;;;;5042678;28;20181;-84
2023/03/22 06:58:36;;;;;;;75.57;14.70;;;10.60;99.90;;;;;;5042950;28;20415;-84
2023/03/22 07:01:05;;;;;;;82.73;18.10;;;10.60;99.90;;;;;;5043442;28;20219;-84
2023/03/22 07:03:30;;;;;;;79.65;16.27;;;10.60;99.90;;;;;;5043182;28;20200;-84
2023/03/22 07:06:01;;;;;;;93.90;16.63;;;10.60;99.90;;;;;;5043270;28;20165;-84
2023/03/22 07:08:27;;;;;;;77.85;14.20;;;10.70;99.90;;;;;;5041796;28;20169;-84
2023/03/22 07:10:53;;;;;;;75.20;14.27;;;10.70;99.90;;;;;;5042141;28;20185;-84
2023/03/22 07:13:18;;;;;;;80.87;14.40;;;10.70;99.90;;;;;;5041892;28;20212;-84
2023/03/22 07:15:44;;;;;;;73.57;12.60;;;10.80;99.90;;;;;;5041769;28;20211;-84
2023/03/22 07:18:10;;;;;;;80.90;14.93;;;10.80;99.90;;;;;;5042619;28;20189;-84
2023/03/22 07:20:37;;;;;;;73.37;12.80;;;10.80;99.90;;;;;;5041279;28;20169;-85
2023/03/22 07:23:03;;;;;;;81.38;13.27;;;10.90;99.90;;;;;;5036541;28;20216;-84
2023/03/22 07:25:29;;;;;;;73.28;12.75;;;10.90;99.90;;;;;;5044468;28;20572;-84
2023/03/22 07:27:55;;;;;;;69.80;10.90;;;10.90;99.90;;;;;;5044724;28;20219;-84
2023/03/22 07:30:21;;;;;;;70.68;12.13;;;11.00;99.90;;;;;;5042861;28;20530;-84
2023/03/22 07:32:46;;;;;;;72.53;13.20;;;11.10;99.90;;;;;;5042753;28;20205;-84
2023/03/22 07:35:12;;;;;;;72.10;12.67;;;11.20;99.90;;;;;;5037164;28;20188;-84
2023/03/22 07:37:38;;;;;;;76.40;12.93;;;11.20;99.90;;;;;;5042485;28;20244;-84
2023/03/22 07:40:04;;;;;;;72.60;11.70;;;11.30;99.90;;;;;;5042094;28;20168;-84
2023/03/22 07:42:30;;;;;;;71.97;11.63;;;11.40;99.90;;;;;;5041604;28;20192;-84
2023/03/22 07:44:56;;;;;;;73.97;12.90;;;11.50;99.90;;;;;;5036272;28;20531;-85
2023/03/22 07:47:22;;;;;;;74.23;11.80;;;11.50;99.90;;;;;;5043162;28;20471;-84
2023/03/22 07:49:48;;;;;;;73.30;11.03;;;11.70;99.90;;;;;;5033748;28;20192;-84
2023/03/22 07:52:13;;;;;;;73.27;9.80;;;11.80;99.90;;;;;;5044121;28;20443;-84
2023/03/22 07:54:39;;;;;;;68.57;8.50;;;11.80;99.90;;;;;;5044329;28;20637;-84
2023/03/22 07:57:05;;;;;;;70.60;6.90;;;11.90;99.90;;;;;;5043920;28;20150;-84
2023/03/22 07:59:31;;;;;;;69.85;8.07;;;12.00;99.90;;;;;;5042620;28;20252;-84
2023/03/22 08:01:57;;;;;;;67.97;6.70;;;12.00;99.90;;;;;;5045206;28;20161;-84
2023/03/22 08:04:23;;;;;;;65.77;4.90;;;12.00;99.90;;;;;;5041343;28;20400;-84
2023/03/22 08:06:50;;;;;;;67.47;5.65;;;12.10;99.90;;;;;;5037117;28;20165;-84
2023/03/22 08:09:16;;;;;;;65.22;5.70;;;12.10;99.90;;;;;;5048487;28;20189;-84
2023/03/22 08:11:43;;;;;;;67.10;4.97;;;12.20;99.90;;;;;;5047599;28;20173;-84
2023/03/22 08:14:08;;;;;;;68.13;4.85;;;12.30;93.00;;;;;;5042883;28;20192;-84
2023/03/22 08:16:34;;;;;;;67.90;4.20;;;12.40;95.40;;;;;;5048857;28;20161;-84
2023/03/22 08:19:00;;;;;;;66.17;5.50;;;12.50;94.40;;;;;;5049509;28;20161;-84
2023/03/22 08:21:26;;;;;;;66.77;8.37;;;12.60;90.40;;;;;;5044892;28;20787;-84
2023/03/22 08:23:52;;;;;;;66.47;8.63;;;12.60;64.70;;;;;;5048206;28;20545;-84
2023/03/22 08:26:18;;;;;;;73.00;9.10;;;12.70;72.70;;;;;;5048854;28;20415;-85
2023/03/22 08:28:44;;;;;;;65.68;7.25;;;12.80;54.00;;;;;;5039431;28;20485;-84
2023/03/22 08:31:15;;;;;;;66.53;7.43;;;12.90;56.20;;;;;;5046581;28;20283;-84
2023/03/22 08:33:42;;;;;;;65.25;5.80;;;12.80;41.00;;;;;;5049270;28;20173;-84
2023/03/22 08:36:11;;;;;;;65.95;4.00;;;12.80;42.30;;;;;;5048240;28;20558;-84
2023/03/22 08:38:36;;;;;;;66.88;3.60;;;12.90;35.90;;;;;;5047281;28;20158;-84
2023/03/22 08:41:02;;;;;;;66.33;4.03;;;12.90;42.30;;;;;;5048343;28;20165;-84
2023/03/22 08:43:28;;;;;;;64.87;4.10;;;13.00;41.10;;;;;;5045007;28;20215;-84
2023/03/22 08:45:54;;;;;;;68.45;4.28;;;13.10;42.40;;;;;;5039590;28;20173;-85
2023/03/22 08:48:19;;;;;;;68.17;4.70;;;13.10;40.70;;;;;;5046825;28;20185;-84
2023/03/22 08:50:45;;;;;;;67.80;3.83;;;13.30;35.90;;;;;;5046505;28;20669;-84
2023/03/22 08:53:12;;;;;;;67.80;3.30;;;13.30;28.40;;;;;;5057372;28;20289;-84
2023/03/22 08:55:43;;;;;;;66.80;3.85;;;13.50;26.10;;;;;;5045488;28;20248;-84
2023/03/22 08:58:15;;;;;;;65.30;4.20;;;13.50;21.10;;;;;;5047037;28;20144;-84
2023/03/22 09:00:41;;;;;;;69.68;4.72;;;13.40;25.20;;;;;;5046866;28;20150;-84
2023/03/22 09:03:06;;;;;;;65.60;3.80;;;13.40;25.10;;;;;;5044535;28;20192;-84
2023/03/22 09:05:32;;;;;;;64.77;3.07;;;13.50;21.90;;;;;;5045509;28;20220;-84
2023/03/22 09:08:01;;;;;;;69.00;3.83;;;13.50;15.20;;;;;;5030219;28;20169;-84
2023/03/22 09:10:28;;;;;;;68.93;3.78;;;13.50;20.30;;;;;;5029361;28;20196;-84
2023/03/22 09:12:54;;;;;;;67.00;3.05;;;13.40;17.70;;;;;;5046665;28;20184;-84
2023/03/22 09:15:20;;;;;;;67.60;3.67;;;13.30;21.00;;;;;;5029608;28;20192;-84
2023/03/22 09:17:46;;;;;;;66.57;4.07;;;13.30;22.80;;;;;;5036914;28;20166;-83
2023/03/22 09:20:12;;;;;;;68.43;4.23;;;13.30;19.20;;;;;;5046075;28;20165;-84
2023/03/22 09:22:37;;;;;;;64.10;3.45;;;13.30;19.00;;;;;;5047037;28;20195;-84
2023/03/22 09:25:05;;;;;;;66.80;2.97;;;13.40;22.50;;;;;;5046522;28;20193;-84
2023/03/22 09:27:30;;;;;;;68.03;3.60;;;13.60;17.80;;;;;;5061186;28;20180;-84
2023/03/22 09:29:56;;;;;;;65.47;3.23;;;13.70;13.60;;;;;;5046767;28;20185;-84
2023/03/22 09:32:22;;;;;;;69.60;3.33;;;13.80;20.30;;;;;;5042343;28;20209;-85
2023/03/22 09:34:47;;;;;;;67.80;3.33;;;13.90;14.30;;;;;;5038311;28;20197;-84
2023/03/22 09:37:13;;;;;;;66.67;3.47;;;13.90;13.70;;;;;;5044874;28;20177;-84
2023/03/22 09:39:40;;;;;;;67.73;3.50;;;13.90;5.70;;;;;;5043672;28;20180;-85
2023/03/22 09:42:17;;;;;;;66.90;3.65;;;14.00;6.10;;;;;;5044256;28;20176;-84
2023/03/22 09:44:44;;;;;;;67.53;3.25;;;13.90;12.90;;;;;;5044698;28;20153;-84
2023/03/22 09:47:19;;;;;;;64.88;3.55;;;14.10;10.10;;;;;;5025089;28;20164;-84
2023/03/22 09:49:51;;;;;;;71.30;4.40;;;14.30;1.00;;;;;;5044551;28;20210;-84
2023/03/22 09:52:17;;;;;;;67.32;4.05;;;14.40;1.00;;;;;;5026663;28;20426;-84
2023/03/22 09:54:45;;;;;;;65.97;3.97;;;14.50;1.00;;;;;;5044758;28;20157;-84
2023/03/22 09:57:36;;;;;;;67.97;3.50;;;14.70;1.00;;;;;;5043344;28;20575;-84
2023/03/22 10:00:34;;;;;;;69.07;3.37;;;14.70;1.00;;;;;;5043919;28;20393;-84
2023/03/22 10:03:14;;;;;;;66.77;3.47;;;14.70;1.00;;;;;;5053465;28;20460;-84
2023/03/22 10:05:50;;;;;;;66.67;3.60;;;14.80;1.00;;;;;;5044686;28;20736;-84
2023/03/22 10:08:43;;;;;;;65.00;3.00;;;14.80;1.00;;;;;;5044881;28;20388;-84
2023/03/22 10:11:41;;;;;;;69.30;3.53;;;14.80;1.00;;;;;;5044753;28;20436;-84
2023/03/22 10:14:28;;;;;;;69.77;3.13;;;14.80;1.00;;;;;;5043538;28;20481;-84
2023/03/22 10:16:56;;;;;;;64.40;2.80;;;14.60;1.00;;;;;;5044613;28;20868;-84
2023/03/22 10:19:30;;;;;;;63.80;3.30;;;14.50;1.00;;;;;;5044722;28;20491;-83
2023/03/22 10:21:57;;;;;;;64.60;3.60;;;14.40;1.00;;;;;;5044341;28;20748;-83
2023/03/22 10:24:31;;;;;;;68.13;3.53;;;14.50;1.00;;;;;;5027566;28;20405;-83
2023/03/22 10:26:57;;;;;;;65.07;3.23;;;14.40;1.00;;;;;;5045957;28;20385;-84
2023/03/22 10:29:34;;;;;;;64.60;3.40;;;14.60;1.00;;;;;;5056258;28;20440;-84
2023/03/22 10:32:16;;;;;;;66.67;2.70;;;15.00;1.00;;;;;;5044855;28;20153;-83
2023/03/22 10:34:42;;;;;;;66.40;3.00;;;15.40;1.00;;;;;;5043808;28;20392;-84
2023/03/22 10:37:21;;;;;;;65.27;2.63;;;15.30;1.00;;;;;;5043162;28;20400;-82
2023/03/22 10:39:53;;;;;;;64.60;2.90;;;15.30;1.00;;;;;;5035307;28;20408;-83
2023/03/22 10:42:25;;;;;;;65.10;2.83;;;15.50;1.00;;;;;;5041757;28;20534;-84
2023/03/22 10:44:59;;;;;;;65.77;3.23;;;15.50;1.00;;;;;;5044294;28;20391;-81
2023/03/22 10:47:46;;;;;;;67.50;3.43;;;15.60;1.00;;;;;;5023738;28;20838;-83
2023/03/22 10:50:25;;;;;;;65.00;3.00;;;15.50;1.00;;;;;;5039963;28;20489;-81
2023/03/22 10:52:58;;;;;;;69.20;3.10;;;15.10;1.00;;;;;;5037947;28;20787;-82
2023/03/22 10:55:24;;;;;;;64.43;2.57;;;15.20;1.00;;;;;;5037914;28;20395;-83
2023/03/22 10:58:07;;;;;;;65.50;2.60;;;14.90;1.00;;;;;;5037666;28;20396;-80
2023/03/22 11:00:33;;;;;;;65.17;2.70;;;14.70;1.00;;;;;;5037304;28;20926;-80
2023/03/22 11:03:00;;;;;;;66.50;3.10;;;14.60;1.00;;;;;;5038287;28;20423;-79
2023/03/22 11:05:28;;;;;;;68.77;3.67;;;14.60;1.00;;;;;;5037644;28;20171;-79
2023/03/22 11:07:59;;;;;;;66.83;2.70;;;14.70;1.00;;;;;;5038002;28;20404;-79
2023/03/22 11:10:31;;;;;;;67.97;3.10;;;14.70;1.00;;;;;;5037539;28;20427;-80
2023/03/22 11:13:06;;;;;;;67.47;2.93;;;14.70;1.00;;;;;;5037897;28;20420;-80
2023/03/22 11:15:38;;;;;;;65.43;2.70;;;14.50;1.00;;;;;;5037111;28;20411;-79
2023/03/22 11:18:06;;;;;;;67.00;2.77;;;14.40;1.00;;;;;;5037388;28;20387;-79
2023/03/22 11:20:33;;;;;;;65.37;2.90;;;14.40;1.00;;;;;;5036800;28;20403;-80
2023/03/22 11:23:02;;;;;;;66.63;2.93;;;14.40;1.00;;;;;;5037282;28;20515;-80
2023/03/22 11:25:29;;;;;;;65.90;2.87;;;14.20;1.00;;;;;;5037912;28;20482;-80
2023/03/22 11:28:04;;;;;;;65.70;3.10;;;14.20;1.00;;;;;;5037900;28;20404;-80
2023/03/22 11:30:34;;;;;;;68.27;3.20;;;14.30;1.00;;;;;;5037804;28;21044;-80
2023/03/22 11:33:21;;;;;;;67.30;5.00;;;14.30;1.00;;;;;;5019819;28;20456;-80
2023/03/22 11:35:53;;;;;;;65.40;3.10;;;14.40;1.00;;;;;;5045716;28;20911;-81
2023/03/22 11:38:46;;;;;;;68.77;3.30;;;14.40;1.00;;;;;;5037849;28;20647;-80
2023/03/22 11:41:25;;;;;;;65.10;2.88;;;14.40;1.00;;;;;;5013913;28;20454;-80
2023/03/22 11:43:59;;;;;;;64.90;2.90;;;14.40;1.00;;;;;;5037712;28;20177;-80
2023/03/22 11:46:25;;;;;;;69.00;3.13;;;14.50;1.00;;;;;;5037827;28;20744;-79
2023/03/22 11:48:55;;;;;;;64.93;2.80;;;14.40;1.00;;;;;;5054529;23;20578;-85
2023/03/22 11:51:29;;;;;;;68.72;3.30;;;14.20;1.00;;;;;;5040024;28;20568;-85
2023/03/22 11:54:27;;;;;;;68.73;2.83;;;14.20;1.00;;;;;;5039651;28;20180;-85
2023/03/22 11:56:57;;;;;;;65.83;3.10;;;14.30;1.00;;;;;;5020550;28;20435;-84
2023/03/22 11:59:29;;;;;;;68.50;2.90;;;14.20;1.00;;;;;;5040477;28;20467;-85
2023/03/22 12:02:19;;;;;;;65.68;3.40;;;14.00;1.00;;;;;;5034136;28;20487;-84
2023/03/22 12:04:49;;;;;;;66.57;3.13;;;14.00;1.00;;;;;;5040574;28;20169;-84
2023/03/22 12:07:19;;;;;;;65.75;3.20;;;14.00;1.00;;;;;;5035211;28;20467;-84
2023/03/22 12:09:58;;;;;;;64.90;3.20;;;13.90;1.00;;;;;;5041974;28;20196;-84
2023/03/22 12:12:30;;;;;;;66.30;3.60;;;13.80;1.00;;;;;;5040665;28;20176;-84
2023/03/22 12:15:05;;;;;;;65.65;3.10;;;13.70;1.00;;;;;;5040067;28;20145;-85
2023/03/22 12:17:55;;;;;;;67.45;3.30;;;13.70;1.00;;;;;;5035778;28;20169;-82
2023/03/22 12:20:44;;;;;;;66.00;2.90;;;13.80;1.00;;;;;;5038370;28;20207;-85
2023/03/22 12:23:18;;;;;;;68.78;3.22;;;13.80;1.00;;;;;;5045785;28;20228;-85
2023/03/22 12:25:59;;;;;;;70.05;3.67;;;13.80;1.00;;;;;;5038823;28;20413;-85
2023/03/22 12:28:41;;;;;;;68.60;3.20;;;13.90;1.00;;;;;;5046404;28;20153;-86
2023/03/22 12:31:36;;;;;;;65.27;2.80;;;14.00;1.00;;;;;;5045216;28;20489;-85
2023/03/22 12:34:33;;;;;;;64.30;3.40;;;14.00;1.00;;;;;;5021191;28;20884;-85
2023/03/22 12:37:02;;;;;;;66.45;4.00;;;13.90;1.00;;;;;;5022537;28;20177;-86
2023/03/22 12:39:46;;;;;;;64.82;2.78;;;13.90;1.00;;;;;;5040193;28;20173;-84
2023/03/22 12:42:43;;;;;;;68.68;3.70;;;13.90;1.00;;;;;;5037808;28;20189;-86
2023/03/22 12:45:22;;;;;;;65.67;3.30;;;13.90;1.00;;;;;;5043032;28;20164;-86
2023/03/22 12:48:15;;;;;;;68.30;3.33;;;13.90;1.00;;;;;;5034687;28;20431;-86
2023/03/22 12:50:52;;;;;;;64.57;3.50;;;13.90;1.00;;;;;;5045185;28;20213;-86
2023/03/22 12:53:19;;;;;;;68.03;4.28;;;13.90;1.00;;;;;;5037115;28;20435;-87